sensor_id;sensor_type;location;lat;lon;timestamp;P1;durP1;ratioP1;P2;durP2;ratioP2
12373;SDS011;6251;51.762;8.660;2023-04-24T01:06:32;0.93;;;0.93;;
12373;SDS011;6251;51.762;8.660;2023-04-24T02:48:07;0.82;;;0.82;;
12373;SDS011;6251;51.762;8.660;2023-04-24T02:58:08;0.90;;;0.90;;
12373;SDS011;6251;51.762;8.660;2023-04-24T04:09:11;1.20;;;1.20;;
12373;SDS011;6251;51.762;8.660;2023-04-24T04:19:11;1.65;;;1.55;;
12373;SDS011;6251;51.762;8.660;2023-04-24T04:29:12;1.70;;;1.60;;
12373;SDS011;6251;51.762;8.660;2023-04-24T04:39:14;2.00;;;1.90;;
12373;SDS011;6251;51.762;8.660;2023-04-24T04:49:16;2.03;;;1.85;;
12373;SDS011;6251;51.762;8.660;2023-04-24T04:59:16;2.33;;;2.12;;
12373;SDS011;6251;51.762;8.660;2023-04-24T05:19:44;3.58;;;3.20;;
12373;SDS011;6251;51.762;8.660;2023-04-24T05:29:46;6.05;;;5.53;;
12373;SDS011;6251;51.762;8.660;2023-04-24T05:39:46;7.82;;;5.65;;
12373;SDS011;6251;51.762;8.660;2023-04-24T05:49:47;8.43;;;7.40;;
12373;SDS011;6251;51.762;8.660;2023-04-24T05:59:48;9.85;;;7.72;;
12373;SDS011;6251;51.762;8.660;2023-04-24T06:20:11;9.07;;;6.25;;
12373;SDS011;6251;51.762;8.660;2023-04-24T06:30:11;6.72;;;6.12;;
12373;SDS011;6251;51.762;8.660;2023-04-24T06:40:12;7.10;;;6.35;;
12373;SDS011;6251;51.762;8.660;2023-04-24T06:50:13;7.75;;;6.20;;
12373;SDS011;6251;51.762;8.660;2023-04-24T07:00:14;6.97;;;5.75;;
12373;SDS011;6251;51.762;8.660;2023-04-24T07:10:15;6.37;;;4.32;;
12373;SDS011;6251;51.762;8.660;2023-04-24T07:20:15;4.87;;;4.37;;
12373;SDS011;6251;51.762;8.660;2023-04-24T07:30:16;5.55;;;5.05;;
12373;SDS011;6251;51.762;8.660;2023-04-24T07:40:17;6.57;;;4.90;;
12373;SDS011;6251;51.762;8.660;2023-04-24T07:50:17;7.03;;;4.50;;
12373;SDS011;6251;51.762;8.660;2023-04-24T08:00:18;6.82;;;4.80;;
12373;SDS011;6251;51.762;8.660;2023-04-24T08:10:20;4.75;;;3.55;;
12373;SDS011;6251;51.762;8.660;2023-04-24T08:20:22;3.83;;;3.28;;
12373;SDS011;6251;51.762;8.660;2023-04-24T08:30:22;3.33;;;3.13;;
12373;SDS011;6251;51.762;8.660;2023-04-24T08:40:26;3.37;;;3.10;;
12373;SDS011;6251;51.762;8.660;2023-04-24T08:50:29;2.72;;;2.62;;
12373;SDS011;6251;51.762;8.660;2023-04-24T09:00:31;2.78;;;2.60;;
12373;SDS011;6251;51.762;8.660;2023-04-24T09:10:32;2.00;;;1.80;;
12373;SDS011;6251;51.762;8.660;2023-04-24T09:20:35;1.90;;;1.80;;
12373;SDS011;6251;51.762;8.660;2023-04-24T09:41:06;1.30;;;1.30;;
12373;SDS011;6251;51.762;8.660;2023-04-24T09:51:08;1.00;;;1.00;;
12373;SDS011;6251;51.762;8.660;2023-04-24T10:01:11;0.60;;;0.60;;
12373;SDS011;6251;51.762;8.660;2023-04-24T10:11:12;0.50;;;0.50;;
12373;SDS011;6251;51.762;8.660;2023-04-24T10:21:13;0.52;;;0.50;;
12373;SDS011;6251;51.762;8.660;2023-04-24T10:31:24;0.57;;;0.57;;
12373;SDS011;6251;51.762;8.660;2023-04-24T10:41:26;2.15;;;0.77;;
12373;SDS011;6251;51.762;8.660;2023-04-24T10:51:42;0.65;;;0.65;;
12373;SDS011;6251;51.762;8.660;2023-04-24T11:01:52;1.10;;;1.10;;
12373;SDS011;6251;51.762;8.660;2023-04-24T11:12:15;1.00;;;1.00;;
12373;SDS011;6251;51.762;8.660;2023-04-24T11:22:15;0.90;;;0.90;;
12373;SDS011;6251;51.762;8.660;2023-04-24T11:43:03;2.15;;;2.05;;
12373;SDS011;6251;51.762;8.660;2023-04-24T11:53:05;2.60;;;2.40;;
12373;SDS011;6251;51.762;8.660;2023-04-24T12:03:12;2.95;;;2.75;;
12373;SDS011;6251;51.762;8.660;2023-04-24T12:13:12;3.20;;;2.97;;
12373;SDS011;6251;51.762;8.660;2023-04-24T12:23:13;2.58;;;2.37;;
12373;SDS011;6251;51.762;8.660;2023-04-24T12:33:20;2.78;;;2.25;;
12373;SDS011;6251;51.762;8.660;2023-04-24T12:43:21;3.15;;;2.75;;
12373;SDS011;6251;51.762;8.660;2023-04-24T12:53:22;5.18;;;3.55;;
12373;SDS011;6251;51.762;8.660;2023-04-24T13:03:23;5.10;;;4.57;;
12373;SDS011;6251;51.762;8.660;2023-04-24T13:13:24;7.72;;;5.10;;
12373;SDS011;6251;51.762;8.660;2023-04-24T13:23:25;9.02;;;6.12;;
12373;SDS011;6251;51.762;8.660;2023-04-24T13:33:26;11.35;;;7.18;;
12373;SDS011;6251;51.762;8.660;2023-04-24T13:43:26;12.13;;;6.72;;
12373;SDS011;6251;51.762;8.660;2023-04-24T13:53:27;14.73;;;8.10;;
12373;SDS011;6251;51.762;8.660;2023-04-24T14:03:28;15.75;;;9.13;;
12373;SDS011;6251;51.762;8.660;2023-04-24T14:13:28;15.98;;;9.50;;
12373;SDS011;6251;51.762;8.660;2023-04-24T14:23:29;21.90;;;10.93;;
12373;SDS011;6251;51.762;8.660;2023-04-24T14:33:30;18.17;;;11.23;;
12373;SDS011;6251;51.762;8.660;2023-04-24T14:43:30;18.37;;;10.52;;
12373;SDS011;6251;51.762;8.660;2023-04-24T14:53:32;14.23;;;8.85;;
12373;SDS011;6251;51.762;8.660;2023-04-24T15:03:33;14.75;;;8.00;;
12373;SDS011;6251;51.762;8.660;2023-04-24T15:13:33;8.65;;;6.57;;
12373;SDS011;6251;51.762;8.660;2023-04-24T15:23:34;11.68;;;7.43;;
12373;SDS011;6251;51.762;8.660;2023-04-24T15:33:35;8.57;;;7.03;;
12373;SDS011;6251;51.762;8.660;2023-04-24T15:43:36;10.98;;;7.22;;
12373;SDS011;6251;51.762;8.660;2023-04-24T15:53:38;7.85;;;7.12;;
12373;SDS011;6251;51.762;8.660;2023-04-24T16:03:39;9.43;;;7.70;;
12373;SDS011;6251;51.762;8.660;2023-04-24T16:13:40;8.82;;;7.35;;
12373;SDS011;6251;51.762;8.660;2023-04-24T16:23:40;9.30;;;6.80;;
12373;SDS011;6251;51.762;8.660;2023-04-24T16:33:41;7.47;;;6.00;;
12373;SDS011;6251;51.762;8.660;2023-04-24T16:43:42;8.52;;;6.95;;
12373;SDS011;6251;51.762;8.660;2023-04-24T16:53:42;8.93;;;6.72;;
12373;SDS011;6251;51.762;8.660;2023-04-24T17:14:12;8.52;;;6.62;;
12373;SDS011;6251;51.762;8.660;2023-04-24T17:24:12;10.25;;;6.37;;
12373;SDS011;6251;51.762;8.660;2023-04-24T17:34:13;9.13;;;6.65;;
12373;SDS011;6251;51.762;8.660;2023-04-24T17:44:13;6.03;;;5.25;;
12373;SDS011;6251;51.762;8.660;2023-04-24T17:54:14;5.57;;;3.90;;
12373;SDS011;6251;51.762;8.660;2023-04-24T18:04:15;5.62;;;3.85;;
12373;SDS011;6251;51.762;8.660;2023-04-24T18:14:16;4.95;;;2.85;;
12373;SDS011;6251;51.762;8.660;2023-04-24T18:24:16;3.92;;;3.50;;
12373;SDS011;6251;51.762;8.660;2023-04-24T18:34:17;4.47;;;4.10;;
12373;SDS011;6251;51.762;8.660;2023-04-24T18:44:18;5.05;;;4.10;;
12373;SDS011;6251;51.762;8.660;2023-04-24T18:54:19;5.57;;;3.87;;
12373;SDS011;6251;51.762;8.660;2023-04-24T19:04:19;4.50;;;4.07;;
12373;SDS011;6251;51.762;8.660;2023-04-24T19:14:20;6.62;;;4.60;;
12373;SDS011;6251;51.762;8.660;2023-04-24T19:34:43;6.80;;;5.28;;
12373;SDS011;6251;51.762;8.660;2023-04-24T19:44:44;6.15;;;5.10;;
12373;SDS011;6251;51.762;8.660;2023-04-24T19:54:45;7.60;;;5.32;;
12373;SDS011;6251;51.762;8.660;2023-04-24T20:04:45;8.10;;;5.45;;
12373;SDS011;6251;51.762;8.660;2023-04-24T20:14:46;7.05;;;4.53;;
12373;SDS011;6251;51.762;8.660;2023-04-24T20:24:47;6.32;;;4.30;;
12373;SDS011;6251;51.762;8.660;2023-04-24T20:34:49;5.40;;;3.92;;
12373;SDS011;6251;51.762;8.660;2023-04-24T20:44:49;8.30;;;5.00;;
12373;SDS011;6251;51.762;8.660;2023-04-24T20:54:50;6.18;;;4.93;;
12373;SDS011;6251;51.762;8.660;2023-04-24T23:06:55;15.93;;;6.45;;
